Arsenal, Arkansas
Current Conditions -  °F | °C
As of 9:53 AM on Wednesday 26 Nov 2014 (Local Time) from KPBF Reporting Station
Clear Clear  
Wind Chill: 45°   Ceiling: Unl
Heat Index: 49°   Visibility: 10mi
Dew Point: 35°   Wind: 9mph
Humidity: 59%   Direction: 200°SSW
Pressure: 30.06"   Gusts: NA
Location:  34.193°N, 91.9403°W
Report Text: KPBF 261553Z AUTO 20008KT 10SM CLR 09/02 A3006 RMK AO2 SLP179 T00940017
Loading
Personal Weather Stations






























Interactive Weather Map New forecast layout! Learn more

10-Day Weather Forecast

Advertisements
Track Severe Weather on mobile